Airfield :
LOGIN :

Register | Disclaimer

   EN    FR    IT 

 










Legend :    VFR   Marginal VFR   IFR   Intensive IFR   Very Intensive IFR
Visi :
Ceiling :
>= 8 km
>= 3000ft
5 to 8 km
1000 to 3000 ft
1500m to 5 km
500 to 1000 ft
800 to 1500m
200 to 500 ft
< 800m
< 200 ft
Symbols :   Thunderstorms  Fog  Heavy snow  Heavy precipitations  Wind > 20 kt
SIGMETs :     Misc.  Thunderstorms  Icing  Turbulence  Mountain Waves  Volcanic Ashes







- Airport Elevation : 1363 ft


ETIC - Grafenwohr Army Air Field

CURRENT METAR :
  • 211156Z AUTO 27013G21KT 9999 FEW060 SCT140 BKN180 BKN200 26/12 A2992 RMK AO2 SLP118 T02620119 10273 20188 55004 $

EXPIRED METARs :
  • 211122Z AUTO 27012G21KT 9999 FEW060 FEW170 BKN200 27/14 A2991 RMK AO2 WSHFT 19 SLP113 $
  • 211118Z AUTO 23013G21KT 9999 FEW060 FEW170 BKN200 27/14 A2991 RMK AO2 WSHFT 05 SLP113 $
  • 211056Z AUTO 25012G19KT 9999 FEW050 FEW070 SCT140 SCT170 27/14 A2992 RMK AO2 SLP116 T02650136 $
  • 210956Z AUTO 23007KT 9999 SCT050 27/15 A2993 RMK AO2 SLP118 T02690149 $

TAF TAF ETIC
Valid from the 21 at 06:00 until the 22 at 12:00 UTC


210612Z 2106/2212 VRB06KT 9999 FEW050 QNH2997INS
BECMG 2107/2108 26009KT 9999 SCT040 QNH2992INS
BECMG 2110/2111 28015G25KT 8000 -SHRA BKN040 QNH2992INS
BECMG 2115/2116 28012KT 9999 NSW SCT040 QNH2996INS
BECMG 2120/2121 30009KT 9999 SCT040 QNH3002INS
BECMG 2209/2210 29012G20KT 9999 BKN030 QNH3006INS TX25/2112Z TN09/2203Z
No reported NOTAMs for that airfield.



MET'MAP, your aeronautical weather chart ! - Copyright ORBIFLY December 2007 - Disclaimer

ORBIFLY MET'MAP TEAM :

Programming & Development : Alexandra Zaïnal
Concept & Development : Baudouin d'Aumeries
Co-Development & Prog : Marc-Olivier Méhu
Technical & hardware support : Manuel Goepfert

Contact : metmap@orbifly.com




SOURCES & CREDITS :

   NOAA